Time;durP1;ratioP1;P1;durP2;ratioP2;P2;SDS_P1;SDS_P2;PMS_P1;PMS_P2;Temp;Humidity;BMP_temperature;BMP_pressure;BME280_temperature;BME280_humidity;BME280_pressure;Samples;Min_cycle;Max_cycle;Signal;HPM_P1;HPM_P2
2022/06/17 04:01:33;;;;;;;3.72;2.58;;;;;;;18.60;84.02;100714.41;5606103;31;79745;-53
2022/06/17 04:04:44;;;;;;;4.22;2.60;;;;;;;18.60;84.02;100714.41;5583947;31;34243;-53
2022/06/17 04:07:47;;;;;;;4.97;2.87;;;;;;;18.25;83.35;100719.94;5583889;31;33338;-52
2022/06/17 04:10:51;;;;;;;4.75;2.80;;;;;;;18.36;86.75;100727.75;5583796;31;33388;-53
2022/06/17 04:13:55;;;;;;;4.37;2.28;;;;;;;18.37;87.97;100732.03;5583744;31;34166;-53
2022/06/17 04:17:25;;;;;;;5.00;2.50;;;;;;;18.43;78.94;100728.81;5583817;31;34040;-53
2022/06/17 04:20:49;;;;;;;2.90;2.60;;;;;;;18.51;85.00;100728.03;5583098;32;33629;-53
2022/06/17 04:23:52;;;;;;;4.60;3.00;;;;;;;18.62;85.08;100728.44;5583456;31;33473;-53
2022/06/17 04:27:04;;;;;;;8.02;2.90;;;;;;;18.68;84.87;100732.59;5580837;32;33406;-53
2022/06/17 04:30:12;;;;;;;3.62;2.70;;;;;;;18.74;86.49;100738.63;5564226;32;33767;-53
2022/06/17 04:33:23;;;;;;;4.60;2.92;;;;;;;18.75;87.04;100745.69;5563898;32;34232;-53
2022/06/17 04:36:35;;;;;;;5.28;3.05;;;;;;;18.84;89.92;100748.34;5567412;32;33293;-53
2022/06/17 04:39:55;;;;;;;7.78;3.00;;;;;;;18.98;86.90;100748.94;5572837;32;33341;-54
2022/06/17 04:43:31;;;;;;;5.55;2.90;;;;;;;19.03;84.65;100740.59;5573458;32;34185;-54
2022/06/17 04:46:53;;;;;;;4.28;2.50;;;;;;;19.00;89.30;100725.72;5563507;32;33450;-53
2022/06/17 04:50:03;;;;;;;4.75;2.37;;;;;;;19.10;87.57;100726.47;5563311;32;33193;-53
2022/06/17 04:53:07;;;;;;;11.32;3.15;;;;;;;19.19;85.08;100724.50;5563166;32;33364;-53
2022/06/17 04:56:27;;;;;;;4.55;2.37;;;;;;;19.27;84.60;100720.12;5563538;32;33166;-53
2022/06/17 04:59:32;;;;;;;3.20;2.30;;;;;;;19.52;74.31;100718.37;5574892;32;33737;-53
2022/06/17 05:02:34;;;;;;;4.35;2.42;;;;;;;19.65;74.84;100720.03;5583067;32;34427;-53
2022/06/17 05:05:40;;;;;;;4.53;2.95;;;;;;;19.70;73.17;100726.09;5582806;31;33329;-54
2022/06/17 05:08:51;;;;;;;5.40;2.60;;;;;;;19.86;79.82;100728.16;5582451;31;33600;-54
2022/06/17 05:12:24;;;;;;;2.95;2.30;;;;;;;19.89;81.05;100722.06;5565767;31;33779;-53
2022/06/17 05:15:29;;;;;;;4.45;2.22;;;;;;;20.02;71.25;100726.41;5550315;32;33521;-53
2022/06/17 05:18:31;;;;;;;7.03;2.75;;;;;;;20.13;79.75;100724.87;5550342;32;34279;-53
2022/06/17 05:21:35;;;;;;;4.78;2.60;;;;;;;20.22;81.87;100730.22;5552691;32;34294;-54
2022/06/17 05:24:37;;;;;;;6.57;2.53;;;;;;;20.24;80.13;100729.91;5569944;32;33330;-53
2022/06/17 05:27:41;;;;;;;6.47;2.95;;;;;;;20.34;79.42;100732.97;5569167;32;33364;-54
2022/06/17 05:30:51;;;;;;;5.82;2.37;;;;;;;20.44;79.85;100730.97;5569783;31;33295;-53
2022/06/17 05:34:00;;;;;;;6.68;2.55;;;;;;;20.50;81.21;100732.34;5569772;31;33321;-53
2022/06/17 05:37:02;;;;;;;8.10;2.30;;;;;;;20.57;80.95;100738.84;5569559;31;33221;-53
2022/06/17 05:40:08;;;;;;;4.72;2.50;;;;;;;20.67;83.67;100739.53;5569768;32;33439;-53
2022/06/17 05:43:11;;;;;;;3.45;2.17;;;;;;;20.85;75.43;100736.22;5568682;31;34265;-53
2022/06/17 05:46:16;;;;;;;4.53;2.10;;;;;;;21.02;71.60;100734.41;5569213;31;33207;-53
2022/06/17 05:49:18;;;;;;;6.32;2.60;;;;;;;21.16;67.00;100740.31;5569731;31;33415;-53
2022/06/17 05:52:21;;;;;;;4.80;2.47;;;;;;;21.30;65.93;100745.41;5568658;32;33350;-54
2022/06/17 05:55:25;;;;;;;4.05;2.60;;;;;;;21.38;67.24;100747.22;5569106;31;33267;-54
2022/06/17 05:58:28;;;;;;;6.25;2.30;;;;;;;21.51;63.84;100743.31;5568372;31;34330;-54
2022/06/17 06:01:31;;;;;;;4.57;2.40;;;;;;;21.52;63.57;100755.84;5568542;32;34419;-54
2022/06/17 06:04:33;;;;;;;4.82;2.53;;;;;;;21.68;64.72;100764.06;5568940;32;34338;-53
2022/06/17 06:07:35;;;;;;;6.05;2.33;;;;;;;21.71;62.35;100759.88;5568955;32;33606;-54
2022/06/17 06:10:38;;;;;;;5.00;2.50;;;;;;;21.77;64.99;100772.13;5567931;31;34379;-54
2022/06/17 06:13:41;;;;;;;5.32;2.45;;;;;;;21.82;62.13;100777.34;5568188;31;34177;-54
2022/06/17 06:16:45;;;;;;;7.90;2.50;;;;;;;21.87;62.24;100779.03;5568401;31;33517;-53
2022/06/17 06:19:47;;;;;;;3.50;2.17;;;;;;;21.96;63.16;100769.56;5567323;32;34431;-53
2022/06/17 06:22:50;;;;;;;4.43;2.45;;;;;;;22.05;62.92;100788.50;5566982;32;34308;-54
2022/06/17 06:25:52;;;;;;;5.82;2.42;;;;;;;21.94;61.76;100781.97;5566514;32;34438;-54
2022/06/17 06:28:56;;;;;;;5.62;2.42;;;;;;;22.02;61.91;100773.63;5568125;31;34195;-54
2022/06/17 06:31:59;;;;;;;8.50;2.70;;;;;;;22.01;59.64;100777.47;5568732;31;33589;-54
2022/06/17 06:35:03;;;;;;;4.72;2.60;;;;;;;22.05;60.66;100786.59;5564586;31;33451;-53
2022/06/17 06:38:06;;;;;;;3.17;2.10;;;;;;;22.11;62.46;100794.53;5562237;32;34189;-54
2022/06/17 06:41:10;;;;;;;5.75;2.33;;;;;;;22.04;58.61;100786.94;5568266;31;33410;-53
2022/06/17 06:44:12;;;;;;;3.22;2.40;;;;;;;21.96;58.27;100791.41;5568252;31;33369;-54
2022/06/17 06:47:16;;;;;;;4.75;2.47;;;;;;;21.95;59.27;100795.28;5568942;32;33457;-53
2022/06/17 06:50:23;;;;;;;4.43;2.22;;;;;;;21.89;59.64;100787.69;5568392;31;33242;-53
2022/06/17 06:53:28;;;;;;;4.65;2.42;;;;;;;21.87;59.27;100792.69;5568149;31;33668;-54
2022/06/17 06:56:34;;;;;;;4.07;2.28;;;;;;;22.08;63.22;100795.22;5568620;31;34369;-55
2022/06/17 06:59:36;;;;;;;6.07;2.45;;;;;;;22.13;58.47;100787.56;5568337;31;34092;-54
2022/06/17 07:02:39;;;;;;;3.30;2.30;;;;;;;22.25;62.73;100795.75;5568083;32;33459;-54
2022/06/17 07:05:46;;;;;;;3.97;2.35;;;;;;;22.27;58.42;100793.44;5567954;32;33588;-53
2022/06/17 07:08:48;;;;;;;7.25;2.87;;;;;;;22.30;59.01;100796.63;5568791;32;33665;-54
2022/06/17 07:11:51;;;;;;;3.47;2.25;;;;;;;22.22;60.62;100801.12;5567887;32;33791;-54
2022/06/17 07:14:53;;;;;;;3.97;2.70;;;;;;;22.27;57.77;100803.56;5568187;32;33675;-54
2022/06/17 07:18:02;;;;;;;4.65;2.50;;;;;;;22.26;58.63;100808.25;5568316;32;33641;-53
2022/06/17 07:21:08;;;;;;;5.75;2.95;;;;;;;22.22;60.92;100801.91;5565414;32;33719;-53
2022/06/17 07:24:10;;;;;;;6.37;2.85;;;;;;;22.42;57.89;100805.56;5558872;32;33450;-54
2022/06/17 07:27:13;;;;;;;7.05;2.67;;;;;;;22.56;58.79;100805.12;5558608;31;33282;-54
2022/06/17 07:30:18;;;;;;;4.05;2.60;;;;;;;22.68;57.05;100804.25;5566958;32;33699;-53
2022/06/17 07:33:23;;;;;;;6.50;2.83;;;;;;;22.75;54.00;100802.50;5562535;32;33640;-53
2022/06/17 07:39:57;;;;;;;4.37;2.50;;;;;;;23.01;55.13;100812.12;5568401;32;33771;-54
2022/06/17 07:43:01;;;;;;;4.75;2.50;;;;;;;23.19;53.32;100815.28;5567938;32;33838;-53
2022/06/17 07:46:04;;;;;;;5.62;2.42;;;;;;;23.45;50.63;100826.47;5568200;32;34359;-53
2022/06/17 07:49:06;;;;;;;3.22;2.20;;;;;;;23.71;55.23;100818.81;5567882;32;34220;-54
2022/06/17 07:52:09;;;;;;;4.65;2.42;;;;;;;23.62;50.74;100821.75;5567487;32;33621;-54
2022/06/17 07:55:14;;;;;;;5.00;2.50;;;;;;;23.63;50.46;100826.06;5567864;32;33551;-54
2022/06/17 07:58:16;;;;;;;8.98;2.50;;;;;;;23.63;52.71;100815.91;5567329;32;33725;-54
2022/06/17 08:01:18;;;;;;;5.28;2.15;;;;;;;23.73;51.20;100809.09;5565370;32;34409;-54
2022/06/17 08:04:21;;;;;;;3.58;2.12;;;;;;;23.87;47.50;100812.16;5567217;32;34350;-53
2022/06/17 08:07:23;;;;;;;3.67;2.40;;;;;;;24.09;53.61;100818.03;5567527;32;32275;-53
2022/06/17 08:10:28;;;;;;;7.87;2.22;;;;;;;24.04;50.08;100827.34;5567387;32;34363;-53
2022/06/17 08:13:31;;;;;;;3.30;2.70;;;;;;;23.85;47.31;100825.41;5567424;32;34159;-54
2022/06/17 08:16:35;;;;;;;5.07;2.78;;;;;;;23.86;49.27;100826.97;5565199;32;33675;-54
2022/06/17 08:19:37;;;;;;;4.82;2.42;;;;;;;23.97;49.40;100829.91;5567320;32;33682;-54
2022/06/17 08:22:41;;;;;;;7.43;2.50;;;;;;;24.04;48.90;100837.50;5560588;32;33550;-55
2022/06/17 08:25:43;;;;;;;2.90;2.60;;;;;;;24.11;50.93;100834.91;5567227;32;33992;-53
2022/06/17 08:28:46;;;;;;;7.00;2.97;;;;;;;24.14;50.29;100829.50;5566904;32;33701;-54
2022/06/17 08:31:48;;;;;;;4.28;2.53;;;;;;;24.17;49.64;100836.19;5567663;32;34247;-53
2022/06/17 08:34:50;;;;;;;6.20;2.60;;;;;;;24.09;49.18;100832.53;5567287;32;33854;-53
2022/06/17 08:37:55;;;;;;;3.80;2.72;;;;;;;24.12;48.13;100828.28;5566966;32;33599;-54
2022/06/17 08:41:05;;;;;;;4.80;2.65;;;;;;;24.06;47.24;100830.50;5566838;32;34447;-53
2022/06/17 08:44:52;;;;;;;6.65;2.95;;;;;;;23.99;48.65;100824.88;5565865;32;33683;-54
2022/06/17 08:48:07;;;;;;;7.80;3.17;;;;;;;24.18;46.62;100820.56;5567498;32;34406;-54
2022/06/17 08:51:24;;;;;;;9.18;2.55;;;;;;;24.29;48.95;100830.56;5568418;32;33749;-56
2022/06/17 08:54:39;;;;;;;5.53;2.40;;;;;;;24.42;47.94;100830.44;5566768;32;33650;-53
2022/06/17 08:57:52;;;;;;;;;;;;;;;24.47;44.49;100835.59;5562013;32;33225;-54
2022/06/17 09:01:20;;;;;;;5.28;2.45;;;;;;;24.50;45.60;100832.16;5560027;32;34589;-54
2022/06/17 09:04:49;;;;;;;5.95;2.10;;;;;;;24.51;43.30;100834.53;5564026;32;33588;-56
2022/06/17 09:08:18;;;;;;;3.62;2.40;;;;;;;24.59;41.12;100835.44;5573128;31;33703;-54
2022/06/17 09:11:44;;;;;;;4.45;2.17;;;;;;;24.58;40.55;100844.84;5566271;32;34333;-54
2022/06/17 09:14:53;;;;;;;7.82;2.83;;;;;;;24.60;42.01;100843.31;5559589;32;33747;-53
2022/06/17 09:18:13;;;;;;;3.72;2.50;;;;;;;24.67;42.85;100853.63;5563954;32;34490;-54
2022/06/17 09:21:23;;;;;;;6.12;2.45;;;;;;;24.64;41.75;100856.31;5562622;32;33634;-55
2022/06/17 09:24:40;;;;;;;6.15;3.08;;;;;;;24.59;42.59;100855.41;5564931;32;33810;-54
2022/06/17 09:27:46;;;;;;;4.75;3.10;;;;;;;24.65;42.33;100855.94;5566188;32;34383;-55
2022/06/17 09:31:13;;;;;;;20.83;3.60;;;;;;;24.68;41.65;100851.66;5558458;32;33668;-54
2022/06/17 09:34:29;;;;;;;9.82;3.28;;;;;;;24.74;43.04;100847.47;5566550;32;33548;-54
2022/06/17 09:38:06;;;;;;;13.57;4.05;;;;;;;24.85;44.23;100851.97;5567815;32;33785;-56
2022/06/17 09:41:17;;;;;;;5.82;3.30;;;;;;;24.95;41.29;100858.00;5566790;32;34582;-54
2022/06/17 09:44:29;;;;;;;4.65;2.90;;;;;;;25.04;41.71;100844.84;5566938;32;33697;-53
2022/06/17 09:47:42;;;;;;;4.85;2.90;;;;;;;25.08;42.62;100843.72;5565146;32;33790;-54
2022/06/17 09:50:52;;;;;;;3.87;2.97;;;;;;;25.17;42.28;100859.19;5567625;32;33704;-54
2022/06/17 09:54:13;;;;;;;5.90;2.55;;;;;;;25.15;40.96;100858.75;5566014;32;33875;-55
2022/06/17 09:57:29;;;;;;;6.78;3.00;;;;;;;25.19;42.63;100860.37;5566002;32;34370;-55
2022/06/17 10:00:38;;;;;;;3.55;2.83;;;;;;;25.30;42.35;100866.06;5566057;32;33496;-55
2022/06/17 10:03:40;;;;;;;4.15;2.55;;;;;;;25.24;42.17;100878.50;5567901;32;33827;-54
2022/06/17 10:06:49;;;;;;;4.80;2.67;;;;;;;25.21;41.04;100863.56;5566278;32;33271;-54
2022/06/17 10:10:06;;;;;;;4.62;3.00;;;;;;;25.19;43.08;100873.31;5559405;32;34402;-54
2022/06/17 10:13:18;;;;;;;5.53;3.00;;;;;;;25.02;39.89;100867.13;5566243;32;33682;-54
2022/06/17 10:20:02;;;;;;;4.80;3.03;;;;;;;24.94;42.62;100870.16;5566610;32;31563;-54
2022/06/17 10:23:19;;;;;;;3.62;2.65;;;;;;;25.05;43.74;100877.37;5563805;32;33880;-53
2022/06/17 10:26:40;;;;;;;5.75;3.12;;;;;;;25.03;43.07;100879.72;5563826;32;34311;-54
2022/06/17 10:30:02;;;;;;;7.28;3.70;;;;;;;25.01;42.21;100892.19;5566792;32;33678;-55
2022/06/17 10:33:04;;;;;;;8.23;4.35;;;;;;;24.85;43.31;100895.06;5564641;32;33813;-55
2022/06/17 10:36:07;;;;;;;9.43;3.80;;;;;;;24.84;44.79;100896.22;5564970;32;33858;-54
2022/06/17 10:39:13;;;;;;;4.97;3.22;;;;;;;24.91;46.01;100890.84;5565029;32;33622;-54
2022/06/17 10:42:18;;;;;;;5.57;3.33;;;;;;;24.91;45.58;100893.59;5562992;32;33606;-53
2022/06/17 10:45:20;;;;;;;3.75;2.87;;;;;;;24.91;43.12;100890.06;5559803;32;33809;-53
2022/06/17 10:48:23;;;;;;;9.25;3.67;;;;;;;24.99;42.76;100894.50;5563346;32;33703;-54
2022/06/17 10:51:27;;;;;;;6.20;3.45;;;;;;;25.02;43.43;100888.28;5567123;32;33950;-53
2022/06/17 10:54:36;;;;;;;5.10;3.25;;;;;;;25.09;43.90;100888.41;5559719;32;33604;-55
2022/06/17 10:57:39;;;;;;;5.87;3.15;;;;;;;25.22;45.15;100894.53;5563840;32;33700;-54
2022/06/17 11:01:11;;;;;;;5.78;3.12;;;;;;;25.35;42.24;100884.16;5556962;32;34356;-54
2022/06/17 11:04:20;;;;;;;11.07;3.50;;;;;;;25.41;40.18;100888.19;5555235;32;33754;-54
2022/06/17 11:07:31;;;;;;;;;;;;;;;25.46;41.23;100893.34;5568097;32;34339;-53
2022/06/17 11:10:33;;;;;;;5.68;3.50;;;;;;;25.47;41.42;100901.22;5561731;32;34072;-53
2022/06/17 11:13:35;;;;;;;7.32;3.97;;;;;;;25.36;38.89;100893.97;5557407;32;33639;-54
2022/06/17 11:16:41;;;;;;;10.15;3.42;;;;;;;25.33;37.91;100891.94;5565857;32;34285;-55
2022/06/17 11:19:48;;;;;;;4.80;3.25;;;;;;;25.32;36.28;100899.41;5563729;32;34417;-54
2022/06/17 11:22:55;;;;;;;5.07;3.50;;;;;;;25.37;38.35;100901.06;5562839;32;33763;-54
2022/06/17 11:26:14;;;;;;;7.90;3.53;;;;;;;25.43;36.67;100896.81;5563146;32;33743;-55
2022/06/17 11:29:33;;;;;;;5.40;3.75;;;;;;;25.23;38.63;100891.44;5564457;32;32851;-54
2022/06/17 11:32:35;;;;;;;5.37;3.58;;;;;;;25.25;39.05;100891.06;5565426;32;34551;-55
2022/06/17 11:35:38;;;;;;;4.62;3.30;;;;;;;25.19;40.88;100901.53;5566987;32;34274;-54
2022/06/17 11:38:41;;;;;;;7.72;3.45;;;;;;;25.12;38.25;100901.44;5564558;32;33754;-53
2022/06/17 11:41:54;;;;;;;5.57;3.92;;;;;;;25.08;38.78;100906.81;5567202;32;33563;-54
2022/06/17 11:45:01;;;;;;;8.15;3.67;;;;;;;25.12;40.43;100903.38;5567353;32;34483;-54
2022/06/17 11:48:18;;;;;;;7.50;3.80;;;;;;;25.13;42.70;100913.19;5554036;32;33449;-53
2022/06/17 11:51:32;;;;;;;5.95;3.70;;;;;;;24.99;41.47;100906.28;5559331;32;33631;-53
2022/06/17 11:54:46;;;;;;;8.15;3.87;;;;;;;24.96;42.81;100893.28;5557751;32;34444;-53
2022/06/17 11:57:52;;;;;;;5.30;3.40;;;;;;;24.92;42.02;100892.44;5563366;32;33780;-53
2022/06/17 12:00:57;;;;;;;7.47;3.83;;;;;;;24.83;43.20;100894.63;5560088;32;34341;-54
2022/06/17 12:04:00;;;;;;;9.45;4.47;;;;;;;24.89;43.06;100887.69;5560740;32;34307;-55
2022/06/17 12:07:22;;;;;;;6.97;4.10;;;;;;;24.89;43.63;100881.41;5566236;32;33292;-54
2022/06/17 12:10:33;;;;;;;7.60;3.45;;;;;;;24.94;45.38;100870.16;5565068;32;33619;-54
2022/06/17 12:13:37;;;;;;;6.05;3.53;;;;;;;25.07;45.55;100860.56;5565652;32;33690;-54
2022/06/17 12:16:43;;;;;;;5.15;3.40;;;;;;;25.21;42.24;100865.53;5563336;32;33394;-54
2022/06/17 12:20:17;;;;;;;7.35;3.33;;;;;;;25.24;39.72;100876.56;5562476;32;33901;-54
2022/06/17 12:23:46;;;;;;;11.70;3.72;;;;;;;25.36;39.91;100866.53;5569104;32;33709;-54
2022/06/17 12:27:07;;;;;;;6.78;3.97;;;;;;;25.40;41.72;100856.41;5561449;31;33715;-54
2022/06/17 12:30:17;;;;;;;5.68;3.95;;;;;;;25.48;41.91;100855.34;5557101;32;33785;-54
2022/06/17 12:33:31;;;;;;;6.22;3.90;;;;;;;25.61;42.48;100848.47;5567487;32;34370;-54
2022/06/17 12:36:49;;;;;;;8.82;3.87;;;;;;;25.66;43.21;100837.19;5569963;32;33703;-54
2022/06/17 12:40:18;;;;;;;5.10;3.20;;;;;;;25.80;42.66;100860.50;5569135;32;33750;-53
2022/06/17 12:43:59;;;;;;;8.25;3.15;;;;;;;25.76;39.84;100842.03;5562210;32;34188;-54
2022/06/17 12:47:15;;;;;;;7.60;3.50;;;;;;;25.75;41.86;100845.91;5569836;32;34280;-53
2022/06/17 12:54:02;;;;;;;3.55;2.60;;;;;;;25.75;40.88;100837.66;5569507;32;34262;-54
2022/06/17 12:57:11;;;;;;;4.93;3.10;;;;;;;25.90;39.75;100848.88;5569837;32;33605;-54
2022/06/17 13:00:42;;;;;;;6.10;3.58;;;;;;;25.90;40.93;100857.13;5570268;32;33655;-54
2022/06/17 13:04:25;;;;;;;4.47;3.20;;;;;;;25.52;40.05;100842.44;5567737;32;33653;-56
2022/06/17 13:07:55;;;;;;;6.30;3.15;;;;;;;25.45;39.95;100836.87;5564710;32;33759;-56
2022/06/17 13:11:11;;;;;;;4.95;2.95;;;;;;;25.47;37.88;100842.78;5560952;32;34712;-54
2022/06/17 13:14:12;;;;;;;;;;;;;;;25.45;39.95;100829.41;5564185;32;34373;-53
2022/06/17 13:17:24;;;;;;;4.55;3.40;;;;;;;25.44;39.25;100836.09;5565352;32;33989;-54
2022/06/17 13:20:35;;;;;;;4.93;3.05;;;;;;;25.50;39.54;100833.81;5567805;32;33755;-54
2022/06/17 13:23:50;;;;;;;4.62;2.90;;;;;;;25.51;40.81;100841.66;5561092;32;33850;-54
2022/06/17 13:27:07;;;;;;;4.22;2.90;;;;;;;25.57;40.55;100827.63;5559172;32;33978;-53
2022/06/17 13:30:27;;;;;;;4.32;3.00;;;;;;;25.51;38.78;100849.91;5565459;32;34413;-55
2022/06/17 13:33:36;;;;;;;4.40;3.20;;;;;;;25.36;40.28;100852.81;5567330;32;34342;-52
2022/06/17 13:37:03;;;;;;;4.68;3.28;;;;;;;25.46;40.22;100839.25;5563754;32;33725;-55
2022/06/17 13:40:10;;;;;;;11.18;3.42;;;;;;;25.43;40.84;100844.66;5563643;32;34464;-54
2022/06/17 13:43:20;;;;;;;6.43;3.42;;;;;;;25.36;40.87;100839.06;5566633;32;31987;-54
2022/06/17 13:46:31;;;;;;;5.78;2.70;;;;;;;25.30;39.28;100844.09;5567731;32;33768;-53
2022/06/17 13:49:59;;;;;;;5.55;2.80;;;;;;;25.29;38.28;100840.56;5565704;32;33691;-54
2022/06/17 13:53:13;;;;;;;6.60;2.60;;;;;;;25.36;38.28;100841.81;5559169;32;33789;-53
2022/06/17 13:56:15;;;;;;;6.62;3.58;;;;;;;25.37;38.30;100844.22;5563079;32;33615;-54
2022/06/17 13:59:29;;;;;;;6.10;2.70;;;;;;;25.39;36.49;100838.34;5567386;32;33692;-56
2022/06/17 14:02:55;;;;;;;7.85;3.05;;;;;;;25.42;38.38;100841.13;5557009;32;33677;-54
2022/06/17 14:06:03;;;;;;;7.72;3.10;;;;;;;25.31;36.74;100854.72;5565118;32;33658;-54
2022/06/17 14:09:22;;;;;;;7.80;2.75;;;;;;;25.31;37.36;100848.44;5566346;32;33591;-54
2022/06/17 14:12:44;;;;;;;7.78;3.03;;;;;;;25.25;37.21;100842.44;5563434;32;34612;-53
2022/06/17 14:16:03;;;;;;;4.70;2.65;;;;;;;25.28;38.45;100830.75;5567109;32;33596;-55
2022/06/17 14:19:14;;;;;;;4.47;2.20;;;;;;;25.25;38.50;100850.69;5564317;32;33740;-54
2022/06/17 14:22:38;;;;;;;4.35;2.58;;;;;;;25.26;38.29;100833.06;5564312;32;33985;-54
2022/06/17 14:25:57;;;;;;;7.20;3.10;;;;;;;25.37;37.75;100837.94;5565910;32;32007;-56
2022/06/17 14:29:01;;;;;;;8.40;2.60;;;;;;;25.39;38.03;100846.56;5565510;31;34322;-55
2022/06/17 14:32:38;;;;;;;3.93;2.40;;;;;;;25.39;38.77;100832.84;5563135;32;34366;-53
2022/06/17 14:35:52;;;;;;;3.00;2.35;;;;;;;25.35;39.11;100832.81;5569218;32;34408;-54
2022/06/17 14:39:01;;;;;;;4.53;2.37;;;;;;;25.34;39.96;100830.44;5567410;32;33590;-53
2022/06/17 14:42:18;;;;;;;3.58;2.40;;;;;;;25.41;37.63;100842.31;5565420;32;34005;-54
2022/06/17 14:45:30;;;;;;;6.50;2.60;;;;;;;25.37;39.27;100835.19;5557587;32;34525;-53
